createdAt,value
2018-03-11T00:01:45.235Z,62.65
2018-03-11T00:04:16.073Z,62.73
2018-03-11T00:06:47.371Z,62.84
2018-03-11T00:09:18.173Z,62.85
2018-03-11T00:11:48.668Z,62.78
2018-03-11T00:14:19.431Z,62.83
2018-03-11T00:16:50.155Z,62.91
2018-03-11T00:19:21.566Z,62.99
2018-03-11T00:21:52.165Z,63.31
2018-03-11T00:24:23.530Z,63.29
2018-03-11T00:26:54.226Z,63.38
2018-03-11T00:29:25.228Z,63.42
2018-03-11T00:31:56.656Z,63.34
2018-03-11T00:34:27.387Z,63.17
2018-03-11T00:36:57.768Z,63.27
2018-03-11T00:39:28.484Z,63.38
2018-03-11T00:41:59.673Z,63.29
2018-03-11T00:44:30.345Z,63.52
2018-03-11T00:47:01.060Z,63.53
2018-03-11T00:49:32.536Z,63.60
2018-03-11T00:52:03.170Z,63.82
2018-03-11T00:54:34.232Z,63.72
2018-03-11T00:57:05.088Z,64.61
2018-03-11T00:59:36.432Z,64.40
2018-03-11T01:02:07.937Z,64.16
2018-03-11T01:04:38.488Z,64.22
2018-03-11T01:07:09.087Z,64.46
2018-03-11T01:09:40.525Z,64.44
2018-03-11T01:12:11.057Z,64.86
2018-03-11T01:14:42.090Z,64.87
2018-03-11T01:17:13.427Z,64.96
2018-03-11T01:19:45.377Z,64.90
2018-03-11T01:22:15.950Z,65.21
2018-03-11T01:24:46.646Z,65.15
2018-03-11T01:27:18.435Z,65.19
2018-03-11T01:29:48.753Z,65.03
2018-03-11T01:32:18.565Z,65.02
2018-03-11T01:34:49.256Z,65.07
2018-03-11T01:37:20.118Z,64.97
2018-03-11T01:39:50.667Z,64.90
2018-03-11T01:42:21.240Z,64.91
2018-03-11T01:44:52.127Z,64.86
2018-03-11T01:47:22.575Z,64.84
2018-03-11T01:49:53.288Z,64.88
2018-03-11T01:52:24.031Z,64.89
2018-03-11T01:54:55.490Z,64.67
2018-03-11T01:57:26.060Z,64.78
2018-03-11T01:59:56.616Z,64.85
2018-03-11T02:02:27.227Z,64.87
2018-03-11T02:04:58.200Z,64.85
2018-03-11T02:07:28.068Z,64.88
2018-03-11T02:09:58.746Z,65.18
2018-03-11T02:12:29.611Z,65.12
2018-03-11T02:15:00.118Z,65.33
2018-03-11T02:17:31.601Z,65.34
2018-03-11T02:20:03.648Z,65.42
2018-03-11T02:22:34.244Z,65.28
2018-03-11T02:25:05.172Z,65.24
2018-03-11T02:27:36.228Z,65.32
2018-03-11T02:30:07.136Z,65.27
2018-03-11T02:32:38.397Z,65.24
2018-03-11T02:35:09.079Z,65.41
2018-03-11T02:37:40.386Z,65.76
2018-03-11T02:40:11.192Z,65.97
2018-03-11T02:42:42.142Z,66.56
2018-03-11T02:45:13.084Z,66.22
2018-03-11T02:47:44.096Z,67.54
2018-03-11T02:50:14.704Z,67.07
2018-03-11T02:52:44.914Z,68.39
2018-03-11T02:55:15.578Z,67.32
2018-03-11T02:57:46.201Z,67.64
2018-03-11T03:00:17.164Z,68.77
2018-03-11T03:02:48.145Z,68.86
2018-03-11T03:05:19.555Z,68.51
2018-03-11T03:07:49.435Z,68.56
2018-03-11T03:10:20.271Z,68.35
2018-03-11T03:12:51.103Z,71.85
2018-03-11T03:15:22.634Z,71.06
2018-03-11T03:17:53.173Z,70.19
2018-03-11T03:20:23.752Z,69.26
2018-03-11T03:22:54.364Z,68.83
2018-03-11T03:25:25.329Z,68.90
2018-03-11T03:27:57.039Z,69.57
2018-03-11T03:30:27.421Z,69.47
2018-03-11T03:32:59.053Z,69.38
2018-03-11T03:35:29.865Z,69.15
2018-03-11T03:38:00.555Z,69.65
2018-03-11T03:40:31.220Z,69.76
2018-03-11T03:43:02.180Z,69.58
2018-03-11T03:45:34.041Z,69.43
2018-03-11T03:48:07.610Z,69.29
2018-03-11T03:50:36.802Z,69.13
2018-03-11T03:53:05.976Z,69.18
2018-03-11T03:55:36.585Z,69.08
2018-03-11T03:58:07.173Z,69.33
2018-03-11T04:00:38.648Z,69.25
2018-03-11T04:03:09.391Z,69.05
2018-03-11T04:05:39.769Z,68.94
2018-03-11T04:08:11.049Z,68.77
2018-03-11T04:10:42.523Z,68.71
2018-03-11T04:13:13.744Z,69.49
2018-03-11T04:15:44.456Z,68.99
2018-03-11T04:18:15.070Z,69.48
2018-03-11T04:20:45.879Z,69.98
2018-03-11T04:23:17.474Z,69.84
2018-03-11T04:25:46.717Z,69.54
2018-03-11T04:28:18.296Z,69.44
2018-03-11T04:30:49.068Z,69.76
2018-03-11T04:33:20.482Z,70.74
2018-03-11T04:35:51.289Z,71.05
2018-03-11T04:38:22.156Z,72.06
2018-03-11T04:40:53.164Z,72.27
2018-03-11T04:43:24.087Z,71.90
2018-03-11T04:45:55.476Z,71.05
2018-03-11T04:48:26.470Z,72.85
2018-03-11T04:50:57.276Z,74.01
2018-03-11T04:53:27.761Z,72.96
2018-03-11T04:55:58.406Z,71.78
2018-03-11T04:58:29.172Z,71.61
2018-03-11T05:01:00.585Z,71.61
2018-03-11T05:03:30.848Z,71.64
2018-03-11T05:06:02.696Z,71.94
2018-03-11T05:08:32.960Z,72.04
2018-03-11T05:11:03.612Z,72.40
2018-03-11T05:13:34.281Z,72.50
2018-03-11T05:16:05.922Z,73.39
2018-03-11T05:18:36.490Z,73.79
2018-03-11T05:21:07.213Z,73.68
2018-03-11T05:23:38.155Z,73.78
2018-03-11T05:26:09.172Z,73.99
2018-03-11T05:28:40.493Z,74.19
2018-03-11T05:31:12.426Z,73.66
2018-03-11T05:33:42.788Z,74.16
2018-03-11T05:36:13.453Z,73.86
2018-03-11T05:38:44.113Z,73.84
2018-03-11T05:41:15.768Z,74.11
2018-03-11T05:43:46.379Z,73.73
2018-03-11T05:46:17.268Z,74.15
2018-03-11T05:48:48.345Z,74.68
2018-03-11T05:51:19.503Z,74.16
2018-03-11T05:53:50.170Z,75.18
2018-03-11T05:56:21.194Z,74.34
2018-03-11T05:58:51.090Z,74.82
2018-03-11T06:01:21.856Z,74.59
2018-03-11T06:03:53.444Z,74.32
2018-03-11T06:06:24.497Z,74.52
2018-03-11T06:08:54.788Z,74.75
2018-03-11T06:11:25.528Z,75.53
2018-03-11T06:13:56.185Z,74.56
2018-03-11T06:16:27.607Z,74.96
2018-03-11T06:18:57.469Z,74.80
2018-03-11T06:21:28.825Z,74.62
2018-03-11T06:23:58.748Z,74.73
2018-03-11T06:26:29.471Z,74.80
2018-03-11T06:28:59.488Z,75.06
2018-03-11T06:31:30.122Z,74.42
2018-03-11T06:34:00.692Z,74.62
2018-03-11T06:36:31.338Z,74.31
2018-03-11T06:39:02.198Z,75.25
2018-03-11T06:41:33.538Z,74.27
2018-03-11T06:44:04.368Z,74.15
2018-03-11T06:46:35.319Z,74.39
2018-03-11T06:49:05.814Z,74.74
2018-03-11T06:51:37.453Z,74.46
2018-03-11T06:54:08.228Z,74.43
2018-03-11T06:56:39.713Z,74.64
2018-03-11T06:59:10.332Z,75.10
2018-03-11T07:01:45.889Z,75.47
2018-03-11T07:04:23.088Z,75.17
2018-03-11T07:06:52.439Z,75.69
2018-03-11T07:09:21.653Z,75.30
2018-03-11T07:11:50.785Z,75.40
2018-03-11T07:14:19.979Z,75.28
2018-03-11T07:16:57.313Z,75.12
2018-03-11T07:19:30.756Z,75.34
2018-03-11T07:22:07.502Z,75.59
2018-03-11T07:24:44.621Z,75.15
2018-03-11T07:27:13.432Z,74.77
2018-03-11T07:29:42.625Z,74.44
2018-03-11T07:32:11.448Z,74.10
2018-03-11T07:34:40.573Z,73.74
2018-03-11T07:37:09.742Z,73.44
2018-03-11T07:39:38.768Z,72.99
2018-03-11T07:42:07.885Z,72.81
2018-03-11T07:44:37.096Z,72.70
2018-03-11T07:47:06.441Z,72.24
2018-03-11T07:49:35.644Z,71.74
2018-03-11T07:52:04.923Z,71.75
2018-03-11T07:54:34.762Z,71.62
2018-03-11T07:57:03.963Z,71.69
2018-03-11T07:59:33.613Z,71.63
2018-03-11T08:02:05.677Z,71.43
2018-03-11T08:04:34.890Z,71.25
2018-03-11T08:07:04.827Z,70.89
2018-03-11T08:09:35.512Z,70.64
2018-03-11T08:12:06.173Z,70.82
2018-03-11T08:14:37.088Z,69.73
2018-03-11T08:17:07.704Z,69.51
2018-03-11T08:19:38.420Z,69.18
2018-03-11T08:22:09.223Z,68.93
2018-03-11T08:24:41.509Z,68.62
2018-03-11T08:27:11.457Z,68.71
2018-03-11T08:29:42.241Z,68.60
2018-03-11T08:32:12.473Z,68.65
2018-03-11T08:34:43.327Z,68.41
2018-03-11T08:37:14.697Z,68.31
2018-03-11T08:39:45.331Z,68.15
2018-03-11T08:42:16.565Z,67.73
2018-03-11T08:44:47.233Z,67.73
2018-03-11T08:47:19.103Z,67.26
2018-03-11T08:49:49.937Z,66.97
2018-03-11T08:52:20.347Z,67.05
2018-03-11T08:54:51.975Z,67.13
2018-03-11T08:57:22.508Z,67.15
2018-03-11T08:59:53.076Z,66.87
2018-03-11T09:02:24.225Z,66.89
2018-03-11T09:04:55.704Z,66.41
2018-03-11T09:07:24.588Z,65.89
2018-03-11T09:09:56.409Z,65.77
2018-03-11T09:12:27.880Z,65.33
2018-03-11T09:14:59.317Z,65.12
2018-03-11T09:17:29.836Z,65.10
2018-03-11T09:20:00.277Z,64.92
2018-03-11T09:22:30.941Z,64.72
2018-03-11T09:25:01.523Z,64.83
2018-03-11T09:27:32.316Z,64.20
2018-03-11T09:30:03.169Z,64.29
2018-03-11T09:32:35.347Z,64.31
2018-03-11T09:35:04.844Z,63.59
2018-03-11T09:37:35.498Z,63.21
2018-03-11T09:40:06.645Z,63.06
2018-03-11T09:42:39.248Z,62.79
2018-03-11T09:45:08.853Z,62.17
2018-03-11T09:47:39.456Z,62.32
2018-03-11T09:50:10.219Z,62.41
2018-03-11T09:52:40.806Z,62.09
2018-03-11T09:55:11.503Z,62.35
2018-03-11T09:57:42.423Z,62.21
2018-03-11T10:00:13.311Z,61.35
2018-03-11T10:02:44.088Z,61.79
2018-03-11T10:05:15.571Z,61.20
2018-03-11T10:07:46.364Z,61.41
2018-03-11T10:10:17.277Z,61.50
2018-03-11T10:12:48.278Z,61.93
2018-03-11T10:15:19.225Z,61.71
2018-03-11T10:17:50.185Z,61.24
2018-03-11T10:20:21.227Z,61.14
2018-03-11T10:22:52.570Z,61.25
2018-03-11T10:25:23.197Z,61.47
2018-03-11T10:27:54.203Z,60.97
2018-03-11T10:30:25.196Z,61.26
2018-03-11T10:32:56.465Z,60.98
2018-03-11T10:35:27.269Z,59.96
2018-03-11T10:37:58.135Z,59.25
2018-03-11T10:40:29.637Z,58.78
2018-03-11T10:43:00.186Z,59.00
2018-03-11T10:45:31.215Z,58.80
2018-03-11T10:48:02.105Z,58.72
2018-03-11T10:50:33.488Z,58.53
2018-03-11T10:53:04.154Z,58.42
2018-03-11T10:55:35.896Z,57.74
2018-03-11T10:58:06.510Z,57.89
2018-03-11T11:00:42.649Z,57.95
2018-03-11T11:03:28.116Z,57.38
2018-03-11T11:06:03.670Z,57.32
2018-03-11T11:08:33.094Z,57.46
2018-03-11T11:11:01.967Z,57.06
2018-03-11T11:13:30.945Z,56.47
2018-03-11T11:16:00.068Z,55.41
2018-03-11T11:18:29.599Z,54.75
2018-03-11T11:20:58.749Z,54.12
2018-03-11T11:23:29.050Z,52.50
2018-03-11T11:25:59.225Z,51.87
2018-03-11T11:28:28.487Z,51.98
2018-03-11T11:30:58.283Z,50.84
2018-03-11T11:33:28.695Z,49.76
2018-03-11T11:35:57.563Z,48.96
2018-03-11T11:38:26.420Z,48.06
2018-03-11T11:40:55.314Z,48.75
2018-03-11T11:43:24.186Z,48.15
2018-03-11T11:45:53.065Z,47.92
2018-03-11T11:48:22.007Z,47.23
2018-03-11T11:50:52.596Z,46.80
2018-03-11T11:53:23.543Z,47.09
2018-03-11T11:55:54.212Z,46.48
2018-03-11T11:58:24.744Z,46.54
2018-03-11T12:00:55.352Z,45.21
2018-03-11T12:03:26.216Z,44.72
2018-03-11T12:05:57.083Z,44.68
2018-03-11T12:08:28.462Z,44.72
2018-03-11T12:10:59.280Z,44.76
2018-03-11T12:13:30.256Z,45.15
2018-03-11T12:16:01.136Z,44.65
2018-03-11T12:18:32.177Z,44.42
2018-03-11T12:21:03.195Z,44.61
2018-03-11T12:23:34.240Z,43.73
2018-03-11T12:26:05.151Z,43.71
2018-03-11T12:28:36.555Z,43.85
2018-03-11T12:31:07.190Z,43.66
2018-03-11T12:33:37.782Z,43.08
2018-03-11T12:36:08.362Z,43.11
2018-03-11T12:38:38.766Z,42.60
2018-03-11T12:41:09.403Z,42.42
2018-03-11T12:43:40.173Z,42.99
2018-03-11T12:46:11.155Z,44.28
2018-03-11T12:48:42.271Z,44.11
2018-03-11T12:51:13.167Z,43.38
2018-03-11T12:53:43.937Z,43.29
2018-03-11T12:56:14.466Z,43.05
2018-03-11T12:58:45.191Z,42.94
2018-03-11T13:01:16.159Z,42.94
2018-03-11T13:03:47.540Z,42.66
2018-03-11T13:06:18.151Z,42.02
2018-03-11T13:08:49.153Z,42.03
2018-03-11T13:11:19.732Z,42.14
2018-03-11T13:13:50.425Z,42.11
2018-03-11T13:16:20.878Z,41.47
2018-03-11T13:18:51.536Z,41.52
2018-03-11T13:21:22.209Z,41.22
2018-03-11T13:23:53.286Z,41.26
2018-03-11T13:26:24.156Z,41.53
2018-03-11T13:28:55.191Z,41.75
2018-03-11T13:31:28.254Z,41.52
2018-03-11T13:34:18.746Z,42.06
2018-03-11T13:36:47.855Z,42.24
2018-03-11T13:39:27.768Z,43.34
2018-03-11T13:41:56.788Z,42.46
2018-03-11T13:44:25.906Z,42.92
2018-03-11T13:47:09.640Z,43.04
2018-03-11T13:49:38.820Z,42.78
2018-03-11T13:52:18.688Z,42.86
2018-03-11T13:54:47.738Z,42.42
2018-03-11T14:00:33.543Z,41.89
2018-03-11T14:03:02.731Z,41.71
2018-03-11T14:05:31.801Z,41.91
2018-03-11T14:08:00.796Z,41.69
2018-03-11T14:10:29.921Z,41.61
2018-03-11T14:12:58.769Z,41.56
2018-03-11T14:15:27.910Z,41.46
2018-03-11T14:17:56.871Z,41.19
2018-03-11T14:20:25.786Z,40.99
2018-03-11T14:22:54.880Z,41.98
2018-03-11T14:25:23.877Z,42.04
2018-03-11T14:27:52.873Z,42.97
2018-03-11T14:30:21.843Z,43.24
2018-03-11T14:32:50.945Z,43.55
2018-03-11T14:35:19.852Z,43.89
2018-03-11T14:37:48.837Z,44.24
2018-03-11T14:40:17.822Z,43.78
2018-03-11T14:42:46.771Z,43.21
2018-03-11T14:45:15.722Z,43.35
2018-03-11T14:47:44.859Z,42.59
2018-03-11T14:50:13.750Z,41.97
2018-03-11T14:52:42.692Z,41.61
2018-03-11T14:55:11.927Z,41.80
2018-03-11T14:57:40.800Z,42.17
2018-03-11T15:00:09.820Z,42.13
2018-03-11T15:02:38.864Z,42.28
2018-03-11T15:05:08.664Z,42.97
2018-03-11T15:07:37.771Z,43.24
2018-03-11T15:10:06.907Z,44.16
2018-03-11T15:12:35.818Z,44.55
2018-03-11T15:15:04.945Z,44.08
2018-03-11T15:17:33.870Z,44.40
2018-03-11T15:20:02.765Z,44.17
2018-03-11T15:22:31.816Z,43.20
2018-03-11T15:25:00.775Z,43.05
2018-03-11T15:27:29.756Z,46.89
2018-03-11T15:29:58.916Z,43.24
2018-03-11T15:32:27.878Z,43.58
2018-03-11T15:34:57.595Z,43.73
2018-03-11T15:37:26.631Z,44.02
2018-03-11T15:39:56.611Z,44.07
2018-03-11T15:42:25.488Z,44.77
2018-03-11T15:44:55.924Z,45.03
2018-03-11T15:47:24.929Z,45.44
2018-03-11T15:49:54.189Z,45.50
2018-03-11T15:52:23.726Z,46.19
2018-03-11T15:54:53.748Z,46.94
2018-03-11T15:57:23.182Z,46.11
2018-03-11T15:59:52.654Z,46.51
2018-03-11T16:02:24.048Z,46.96
2018-03-11T16:04:53.958Z,46.56
2018-03-11T16:07:22.839Z,45.93
2018-03-11T16:09:52.553Z,46.24
2018-03-11T16:12:23.275Z,46.51
2018-03-11T16:14:59.413Z,47.03
2018-03-11T16:17:28.240Z,46.72
2018-03-11T16:19:57.104Z,46.61
2018-03-11T16:22:27.842Z,46.43
2018-03-11T16:24:58.884Z,46.63
2018-03-11T16:27:29.678Z,47.06
2018-03-11T16:30:00.402Z,47.34
2018-03-11T16:32:31.389Z,47.22
2018-03-11T16:35:01.197Z,47.30
2018-03-11T16:37:33.007Z,47.89
2018-03-11T16:40:05.515Z,47.96
2018-03-11T16:42:36.023Z,48.50
2018-03-11T16:45:05.740Z,47.99
2018-03-11T16:47:37.294Z,48.04
2018-03-11T16:50:07.142Z,48.02
2018-03-11T16:52:38.603Z,48.13
2018-03-11T16:55:08.392Z,48.22
2018-03-11T16:57:39.420Z,48.26
2018-03-11T17:00:10.233Z,48.58
2018-03-11T17:02:42.105Z,48.83
2018-03-11T17:05:13.274Z,49.36
2018-03-11T17:07:44.565Z,50.63
2018-03-11T17:10:14.283Z,50.45
2018-03-11T17:12:46.315Z,50.64
2018-03-11T17:15:19.477Z,50.99
2018-03-11T17:17:48.490Z,51.06
2018-03-11T17:20:19.059Z,51.44
2018-03-11T17:22:49.640Z,51.43
2018-03-11T17:25:21.133Z,51.75
2018-03-11T17:27:51.890Z,52.04
2018-03-11T17:30:23.277Z,52.10
2018-03-11T17:32:53.837Z,52.54
2018-03-11T17:35:24.609Z,52.78
2018-03-11T17:37:55.452Z,52.56
2018-03-11T17:40:26.306Z,52.93
2018-03-11T17:42:58.876Z,52.96
2018-03-11T17:45:30.806Z,53.71
2018-03-11T17:48:01.338Z,54.19
2018-03-11T17:50:31.886Z,54.08
2018-03-11T17:53:01.858Z,53.85
2018-03-11T17:55:32.603Z,54.10
2018-03-11T17:58:03.748Z,54.08
2018-03-11T18:00:33.365Z,54.11
2018-03-11T18:03:04.201Z,54.44
2018-03-11T18:05:35.392Z,55.47
2018-03-11T18:08:06.413Z,54.88
2018-03-11T18:10:36.931Z,54.26
2018-03-11T18:13:07.779Z,54.90
2018-03-11T18:15:38.624Z,54.86
2018-03-11T18:18:09.381Z,52.88
2018-03-11T18:20:40.230Z,53.08
2018-03-11T18:23:11.265Z,53.02
2018-03-11T18:25:41.400Z,52.66
2018-03-11T18:28:11.994Z,52.88
2018-03-11T18:30:42.928Z,52.31
2018-03-11T18:33:14.024Z,52.17
2018-03-11T18:35:44.891Z,52.02
2018-03-11T18:38:15.980Z,51.37
2018-03-11T18:40:46.888Z,51.33
2018-03-11T18:43:17.982Z,50.95
2018-03-11T18:45:49.025Z,51.03
2018-03-11T18:48:19.962Z,51.17
2018-03-11T18:50:50.957Z,51.61
2018-03-11T18:53:21.979Z,52.51
2018-03-11T18:55:52.985Z,52.74
2018-03-11T18:58:23.929Z,53.31
2018-03-11T19:00:54.950Z,53.95
2018-03-11T19:03:25.989Z,54.18
2018-03-11T19:05:56.975Z,53.98
2018-03-11T19:08:27.820Z,53.96
2018-03-11T19:10:58.855Z,53.89
2018-03-11T19:13:29.919Z,53.75
2018-03-11T19:16:00.872Z,54.38
2018-03-11T19:18:31.926Z,55.57
2018-03-11T19:21:02.916Z,55.27
2018-03-11T19:23:33.979Z,55.49
2018-03-11T19:26:04.829Z,56.17
2018-03-11T19:28:36.233Z,56.69
2018-03-11T19:31:06.954Z,56.79
2018-03-11T19:33:38.004Z,56.87
2018-03-11T19:36:08.894Z,56.77
2018-03-11T19:38:40.032Z,57.00
2018-03-11T19:41:10.928Z,57.23
2018-03-11T19:43:42.125Z,57.13
2018-03-11T19:46:12.864Z,57.17
2018-03-11T19:48:44.073Z,56.79
2018-03-11T19:51:15.193Z,56.92
2018-03-11T19:53:47.305Z,57.29
2018-03-11T19:56:19.239Z,57.42
2018-03-11T19:58:49.933Z,57.41
2018-03-11T20:01:20.679Z,57.54
2018-03-11T20:03:52.465Z,57.46
2018-03-11T20:06:24.320Z,57.27
2018-03-11T20:08:54.200Z,57.44
2018-03-11T20:11:25.038Z,57.16
2018-03-11T20:13:57.005Z,57.70
2018-03-11T20:16:26.889Z,57.82
2018-03-11T20:18:57.732Z,58.08
2018-03-11T20:21:28.489Z,58.68
2018-03-11T20:23:59.159Z,58.74
2018-03-11T20:26:29.889Z,59.00
2018-03-11T20:28:59.978Z,59.47
2018-03-11T20:31:30.785Z,60.05
2018-03-11T20:34:01.587Z,59.46
2018-03-11T20:36:32.464Z,60.88
2018-03-11T20:39:03.217Z,59.45
2018-03-11T20:41:34.524Z,58.27
2018-03-11T20:44:05.231Z,58.45
2018-03-11T20:46:35.680Z,58.11
2018-03-11T20:49:06.321Z,58.98
2018-03-11T20:51:37.180Z,58.88
2018-03-11T20:54:07.740Z,58.93
2018-03-11T20:56:38.348Z,59.08
2018-03-11T20:59:09.211Z,59.90
2018-03-11T21:01:39.750Z,60.06
2018-03-11T21:04:10.548Z,60.34
2018-03-11T21:06:41.169Z,60.30
2018-03-11T21:09:12.580Z,60.24
2018-03-11T21:11:43.219Z,60.74
2018-03-11T21:14:13.737Z,60.89
2018-03-11T21:16:44.333Z,61.86
2018-03-11T21:19:15.266Z,62.43
2018-03-11T21:21:46.261Z,63.34
2018-03-11T21:24:17.156Z,62.93
2018-03-11T21:26:48.419Z,63.16
2018-03-11T21:29:19.260Z,63.27
2018-03-11T21:31:49.804Z,63.96
2018-03-11T21:34:19.847Z,63.10
2018-03-11T21:36:51.399Z,63.54
2018-03-11T21:39:21.961Z,63.32
2018-03-11T21:41:53.503Z,63.03
2018-03-11T21:44:24.328Z,64.87
2018-03-11T21:46:55.655Z,64.90
2018-03-11T21:49:26.496Z,62.96
2018-03-11T21:51:57.385Z,61.48
2018-03-11T21:54:27.802Z,60.01
2018-03-11T21:56:57.848Z,59.00
2018-03-11T21:59:28.877Z,57.34
2018-03-11T22:01:59.752Z,57.55
2018-03-11T22:04:31.103Z,58.43
2018-03-11T22:07:02.432Z,58.98
2018-03-11T22:09:33.246Z,58.81
2018-03-11T22:12:04.178Z,59.13
2018-03-11T22:14:35.292Z,59.88
2018-03-11T22:17:06.537Z,60.20
2018-03-11T22:19:37.321Z,61.44
2018-03-11T22:22:08.500Z,61.63
2018-03-11T22:24:41.373Z,60.35
2018-03-11T22:27:10.488Z,58.71
2018-03-11T22:29:41.426Z,56.31
2018-03-11T22:32:12.065Z,55.59
2018-03-11T22:34:42.471Z,56.21
2018-03-11T22:37:13.200Z,57.23
2018-03-11T22:39:44.518Z,58.14
2018-03-11T22:42:15.152Z,59.20
2018-03-11T22:44:45.798Z,59.16
2018-03-11T22:47:16.389Z,59.57
2018-03-11T22:49:47.541Z,59.98
2018-03-11T22:52:18.228Z,60.15
2018-03-11T22:54:49.249Z,60.19
2018-03-11T22:57:20.144Z,60.64
2018-03-11T22:59:50.759Z,61.17
2018-03-11T23:02:21.393Z,61.13
2018-03-11T23:04:52.307Z,61.33
2018-03-11T23:07:23.977Z,61.81
2018-03-11T23:09:54.876Z,62.41
2018-03-11T23:12:25.516Z,62.51
2018-03-11T23:14:56.025Z,62.58
2018-03-11T23:17:26.512Z,63.11
2018-03-11T23:19:58.192Z,63.30
2018-03-11T23:22:28.509Z,63.27
2018-03-11T23:24:59.224Z,63.40
2018-03-11T23:27:29.043Z,63.63
2018-03-11T23:29:59.832Z,63.69
2018-03-11T23:32:31.217Z,63.63
2018-03-11T23:35:02.212Z,64.07
2018-03-11T23:37:33.927Z,64.82
2018-03-11T23:40:04.609Z,64.31
2018-03-11T23:42:35.735Z,64.18
2018-03-11T23:45:06.355Z,64.38
2018-03-11T23:47:40.800Z,64.96
2018-03-11T23:50:09.776Z,64.86
2018-03-11T23:52:38.899Z,65.34
2018-03-11T23:55:09.073Z,65.19
2018-03-11T23:57:45.029Z,65.62
